Bushkill, PA (18324)

5:03 PM EST on February 11, 2016 (GMT -0500)
woods | | Change Station
CLOSE
Current Station
Personal Weather Station
Location: East Stroudsburg, PA
Elevation: 797 ft
Nearby Weather Stations
Active Advisory: Wind Chill Watch Active Notice: Public Information Statement

Elev 797 ft 41.09 °N, 75.08 °W | Updated 44 seconds ago

Overcast
Overcast
18.3 °F
Feels Like 11 °F
N
5.4
Wind Variable Wind from West
Gusts 9.2 mph

Today
High -- | Low -- °F
--% Chance of Precip.
Yesterday
High -- | Low -- °F
Precip. -- in
Pressure 29.99 in
Visibility 10.0 miles
Clouds Scattered Clouds 6000 ft
Windchill 11 °F
Dew Point -16 °F
Humidity 20%
Rainfall 0.00 in
Snow Depth Not available.
7:00 AM 5:28 PM
Waxing Crescent, 15% visible
METAR KMPO 112153Z AUTO 30015G30KT 10SM SCT060 M11/M22 A2988 RMK AO2 PK WND 29038/2140 SLP156 T11061217
Pressure 29.99 in
Visibility 10.0 miles
Clouds Scattered Clouds 6000 ft
Windchill 11 °F
Dew Point -16 °F
Humidity 20%
Rainfall 0.00 in
Snow Depth Not available.
7:00 AM 5:28 PM
Waxing Crescent, 15% visible
METAR KMPO 112153Z AUTO 30015G30KT 10SM SCT060 M11/M22 A2988 RMK AO2 PK WND 29038/2140 SLP156 T11061217

10-Day Weather Forecast

Almanac

Astronomy

Feb. 11, 2016 Rise Set
Actual Time
Civil Twilight
Nautical Twilight
Astronomical Twilight
Moon
Length of Visible Light
Length of Day
Tomorrow will be .
, % of the Moon is Illuminated

Today's Extremes

State Highs State Lows

Community

WunderPhotos

Upload Photos

1,892,169 photos uploaded!

WunderBlog® & News

Nearby

Air Quality

  Air Quality AQ Index Pollutant
Not available.

Snow Depth

Station Depth Elevation

Earthquake Activity

City Distance Mag. Time & Date
Minimum magnitude displayed is 2.5.

Coastal Water Temperatures

Place Temperature

Stations

Nearby Weather Stations

Station Location Temp. Windchill Dew Point Humidity Wind Precip. Elev Updated Type
                   

Watches & Warnings

Wind Chill Watch
Issued: 3:42 PM EST Feb. 11, 2016 – National Weather Service

... Wind chill watch in effect from late Saturday afternoon
through Sunday afternoon...

The National Weather Service in Binghamton has issued a wind
chill watch... which is in effect from Saturday afternoon through
Sunday afternoon.

* Locations... northeast pennsyvlania and Sullivan County New York.

* Hazard types... bitterly cold wind chills.

* Timing... coldest Saturday night into Sunday.

* Wind chill... wind chills as low as 25 below.

* Winds... northwest 10 to 20 with gusts to 35 mph.

* Temperatures... falling to zero to 10 below Saturday night.


Precautionary/preparedness actions...

A wind chill watch means the there is the potential for a
combination of very cold air and strong winds to create
dangerously low wind chill values. Monitor the latest forecasts
and warnings for updates on this situation.



Mse